createdAt,value
2023-07-31T00:01:32.972Z,100973.78
2023-07-31T00:04:00.179Z,100966.81
2023-07-31T00:06:26.809Z,100962.47
2023-07-31T00:08:53.359Z,100956.34
2023-07-31T00:11:20.043Z,100958.06
2023-07-31T00:13:46.692Z,100962.28
2023-07-31T00:16:13.265Z,100950.13
2023-07-31T00:18:39.892Z,100950.00
2023-07-31T00:21:06.555Z,100952.44
2023-07-31T00:23:33.144Z,100952.44
2023-07-31T00:25:59.791Z,100953.22
2023-07-31T00:28:26.643Z,100949.63
2023-07-31T00:30:53.284Z,100953.03
2023-07-31T00:33:19.903Z,100952.97
2023-07-31T00:35:46.592Z,100952.09
2023-07-31T00:38:13.167Z,100943.31
2023-07-31T00:40:39.778Z,100939.88
2023-07-31T00:43:06.646Z,100954.56
2023-07-31T00:45:33.911Z,100959.72
2023-07-31T00:48:00.848Z,100932.16
2023-07-31T00:50:29.222Z,100958.78
2023-07-31T00:52:56.104Z,100948.38
2023-07-31T00:55:23.046Z,100948.44
2023-07-31T00:57:51.439Z,100932.00
2023-07-31T01:00:18.069Z,100935.31
2023-07-31T01:02:45.498Z,100940.47
2023-07-31T01:05:12.185Z,100936.19
2023-07-31T01:07:47.825Z,100946.50
2023-07-31T01:10:29.105Z,100943.97
2023-07-31T01:12:59.010Z,100923.16
2023-07-31T01:15:25.644Z,100941.31
2023-07-31T01:17:52.343Z,100934.44
2023-07-31T01:20:23.267Z,100936.97
2023-07-31T01:22:49.799Z,100935.09
2023-07-31T01:25:37.660Z,100929.91
2023-07-31T01:28:08.890Z,100916.88
2023-07-31T01:30:42.257Z,100936.88
2023-07-31T01:33:10.252Z,100932.56
2023-07-31T01:35:38.020Z,100930.00
2023-07-31T01:38:05.908Z,100919.53
2023-07-31T01:40:32.846Z,100931.66
2023-07-31T01:42:59.571Z,100928.22
2023-07-31T01:45:26.212Z,100927.34
2023-07-31T01:47:52.840Z,100933.44
2023-07-31T01:50:19.411Z,100897.22
2023-07-31T01:52:46.053Z,100918.78
2023-07-31T01:55:12.725Z,100899.75
2023-07-31T01:57:39.337Z,100910.00
2023-07-31T02:00:06.553Z,100905.72
2023-07-31T02:02:33.273Z,100902.25
2023-07-31T02:04:59.960Z,100885.84
2023-07-31T02:07:26.521Z,100895.38
2023-07-31T02:09:53.150Z,100891.94
2023-07-31T02:12:19.782Z,100881.53
2023-07-31T02:14:46.403Z,100884.94
2023-07-31T02:17:12.976Z,100852.16
2023-07-31T02:19:39.558Z,100859.84
2023-07-31T02:22:06.267Z,100875.41
2023-07-31T02:24:33.092Z,100866.66
2023-07-31T02:26:59.638Z,100844.31
2023-07-31T02:29:26.278Z,100867.66
2023-07-31T02:31:52.955Z,100857.41
2023-07-31T02:34:19.587Z,100857.16
2023-07-31T02:36:46.168Z,100867.50
2023-07-31T02:39:12.772Z,100867.56
2023-07-31T02:41:39.331Z,100859.81
2023-07-31T02:44:05.900Z,100854.66
2023-07-31T02:46:32.748Z,100868.41
2023-07-31T02:48:59.396Z,100856.31
2023-07-31T02:51:25.977Z,100856.38
2023-07-31T02:53:52.558Z,100855.47
2023-07-31T02:56:19.281Z,100848.59
2023-07-31T02:58:45.881Z,100859.00
2023-07-31T03:01:12.486Z,100850.25
2023-07-31T03:03:39.239Z,100856.34
2023-07-31T03:06:06.059Z,100849.47
2023-07-31T03:08:32.627Z,100839.97
2023-07-31T03:10:59.303Z,100852.97
2023-07-31T03:13:25.990Z,100839.03
2023-07-31T03:15:52.601Z,100850.28
2023-07-31T03:18:19.229Z,100849.50
2023-07-31T03:20:45.769Z,100854.72
2023-07-31T03:23:12.339Z,100856.56
2023-07-31T03:25:38.941Z,100845.25
2023-07-31T03:28:05.591Z,100851.28
2023-07-31T03:30:32.310Z,100847.84
2023-07-31T03:32:58.937Z,100838.38
2023-07-31T03:35:25.567Z,100831.53
2023-07-31T03:37:52.132Z,100847.84
2023-07-31T03:40:18.871Z,100833.16
2023-07-31T03:42:45.576Z,100840.03
2023-07-31T03:45:12.164Z,100832.25
2023-07-31T03:47:38.878Z,100835.75
2023-07-31T03:50:06.100Z,100831.38
2023-07-31T03:52:32.657Z,100825.41
2023-07-31T03:54:59.229Z,100830.47
2023-07-31T03:57:25.794Z,100820.97
2023-07-31T03:59:52.340Z,100826.94
2023-07-31T04:02:19.980Z,100812.41
2023-07-31T04:04:46.706Z,100818.44
2023-07-31T04:07:13.337Z,100816.72
2023-07-31T04:09:39.913Z,100810.63
2023-07-31T04:12:06.818Z,100803.66
2023-07-31T04:14:33.423Z,100807.13
2023-07-31T04:17:00.030Z,100795.09
2023-07-31T04:19:26.611Z,100789.75
2023-07-31T04:21:53.201Z,100784.72
2023-07-31T04:24:25.276Z,100790.69
2023-07-31T04:26:53.119Z,100793.25
2023-07-31T04:29:20.073Z,100796.88
2023-07-31T04:31:47.151Z,100796.88
2023-07-31T04:34:13.849Z,100792.59
2023-07-31T04:36:40.742Z,100801.19
2023-07-31T04:39:07.567Z,100814.09
2023-07-31T04:41:34.116Z,100789.94
2023-07-31T04:44:00.754Z,100796.81
2023-07-31T04:46:27.493Z,100793.34
2023-07-31T04:48:54.144Z,100783.78
2023-07-31T04:51:22.237Z,100783.78
2023-07-31T04:53:48.804Z,100771.63
2023-07-31T04:56:16.614Z,100769.84
2023-07-31T04:58:43.287Z,100776.06
2023-07-31T05:01:09.945Z,100770.72
2023-07-31T05:03:36.677Z,100767.25
2023-07-31T05:06:03.362Z,100771.63
2023-07-31T05:08:30.078Z,100763.81
2023-07-31T05:10:56.647Z,100761.22
2023-07-31T05:13:23.197Z,100771.53
2023-07-31T05:15:50.745Z,100760.38
2023-07-31T05:18:17.501Z,100773.38
2023-07-31T05:20:44.089Z,100768.19
2023-07-31T05:23:10.694Z,100747.59
2023-07-31T05:25:37.303Z,100751.84
2023-07-31T05:28:04.001Z,100761.22
2023-07-31T05:30:33.741Z,100757.84
2023-07-31T05:33:00.340Z,100733.66
2023-07-31T05:35:27.063Z,100755.31
2023-07-31T05:37:53.668Z,100739.78
2023-07-31T05:40:20.263Z,100740.72
2023-07-31T05:42:46.858Z,100733.75
2023-07-31T05:45:14.584Z,100734.66
2023-07-31T05:47:41.316Z,100726.88
2023-07-31T05:50:08.229Z,100736.34
2023-07-31T05:52:34.889Z,100735.50
2023-07-31T05:55:02.502Z,100723.25
2023-07-31T05:57:29.173Z,100718.88
2023-07-31T05:59:55.778Z,100706.78
2023-07-31T06:02:22.487Z,100717.13
2023-07-31T06:04:49.183Z,100708.56
2023-07-31T06:07:15.862Z,100716.34
2023-07-31T06:09:42.445Z,100721.50
2023-07-31T06:12:09.937Z,100711.16
2023-07-31T06:14:36.500Z,100708.59
2023-07-31T06:17:03.149Z,100698.34
2023-07-31T06:19:29.691Z,100702.59
2023-07-31T06:21:56.265Z,100702.59
2023-07-31T06:24:23.284Z,100710.22
2023-07-31T06:26:49.912Z,100705.19
2023-07-31T06:29:16.595Z,100694.84
2023-07-31T06:31:43.309Z,100698.16
2023-07-31T06:34:09.959Z,100688.75
2023-07-31T06:36:36.634Z,100689.44
2023-07-31T06:39:03.258Z,100681.63
2023-07-31T06:41:29.830Z,100679.72
2023-07-31T06:43:56.524Z,100668.44
2023-07-31T06:46:23.130Z,100675.16
2023-07-31T06:48:49.980Z,100663.78
2023-07-31T06:51:17.364Z,100671.47
2023-07-31T06:53:46.306Z,100675.78
2023-07-31T06:56:13.034Z,100661.06
2023-07-31T06:58:40.195Z,100666.09
2023-07-31T07:01:06.819Z,100661.97
2023-07-31T07:03:33.893Z,100667.19
2023-07-31T07:06:00.559Z,100648.13
2023-07-31T07:08:27.697Z,100669.47
2023-07-31T07:10:55.080Z,100653.91
2023-07-31T07:13:22.847Z,100662.25
2023-07-31T07:15:50.347Z,100657.19
2023-07-31T07:18:17.066Z,100661.28
2023-07-31T07:20:52.103Z,100654.50
2023-07-31T07:23:19.118Z,100650.13
2023-07-31T07:25:46.898Z,100641.38
2023-07-31T07:28:13.895Z,100657.72
2023-07-31T07:30:40.616Z,100656.03
2023-07-31T07:33:07.447Z,100657.47
2023-07-31T07:35:36.020Z,100644.56
2023-07-31T07:38:03.869Z,100647.09
2023-07-31T07:40:30.498Z,100642.78
2023-07-31T07:42:57.171Z,100647.81
2023-07-31T07:45:23.764Z,100640.09
2023-07-31T07:47:50.360Z,100646.97
2023-07-31T07:50:16.973Z,100643.53
2023-07-31T07:52:43.516Z,100651.91
2023-07-31T07:55:10.198Z,100647.34
2023-07-31T07:57:36.775Z,100638.38
2023-07-31T08:00:03.824Z,100639.91
2023-07-31T08:02:30.459Z,100636.31
2023-07-31T08:04:57.220Z,100621.66
2023-07-31T08:07:23.875Z,100626.75
2023-07-31T08:09:50.455Z,100631.81
2023-07-31T08:12:17.029Z,100612.75
2023-07-31T08:14:43.564Z,100626.19
2023-07-31T08:17:10.359Z,100612.41
2023-07-31T08:19:37.031Z,100622.63
2023-07-31T08:22:03.893Z,100604.41
2023-07-31T08:24:30.455Z,100608.50
2023-07-31T08:26:56.988Z,100600.72
2023-07-31T08:29:23.599Z,100615.34
2023-07-31T08:31:50.132Z,100611.69
2023-07-31T08:34:16.742Z,100603.00
2023-07-31T08:36:43.369Z,100606.47
2023-07-31T08:39:10.105Z,100607.91
2023-07-31T08:41:40.544Z,100597.72
2023-07-31T08:44:08.845Z,100605.38
2023-07-31T08:46:36.087Z,100610.44
2023-07-31T08:49:07.194Z,100596.47
2023-07-31T08:51:36.311Z,100607.56
2023-07-31T08:54:05.170Z,100612.41
2023-07-31T08:56:33.853Z,100599.19
2023-07-31T08:59:03.999Z,100606.34
2023-07-31T09:01:32.769Z,100606.59
2023-07-31T09:04:02.046Z,100611.53
2023-07-31T09:06:31.418Z,100609.69
2023-07-31T09:08:58.120Z,100612.34
2023-07-31T09:11:26.359Z,100615.91
2023-07-31T09:13:54.527Z,100598.47
2023-07-31T09:16:31.549Z,100592.56
2023-07-31T09:18:59.656Z,100603.59
2023-07-31T09:21:27.139Z,100589.66
2023-07-31T09:23:55.403Z,100592.31
2023-07-31T09:26:31.545Z,100603.84
2023-07-31T09:28:59.354Z,100604.22
2023-07-31T09:31:43.441Z,100594.75
2023-07-31T09:34:12.271Z,100586.56
2023-07-31T09:36:48.648Z,100590.97
2023-07-31T09:39:21.015Z,100587.63
2023-07-31T09:41:57.303Z,100597.22
2023-07-31T09:44:39.749Z,100577.38
2023-07-31T09:47:06.624Z,100591.34
2023-07-31T09:49:33.213Z,100587.94
2023-07-31T09:51:59.956Z,100585.00
2023-07-31T09:54:26.562Z,100589.00
2023-07-31T09:56:54.098Z,100592.78
2023-07-31T09:59:23.884Z,100588.94
2023-07-31T10:01:53.089Z,100576.59
2023-07-31T10:04:26.899Z,100577.78
2023-07-31T10:06:55.074Z,100556.66
2023-07-31T10:09:25.346Z,100567.53
2023-07-31T10:11:59.824Z,100580.41
2023-07-31T10:14:28.640Z,100575.06
2023-07-31T10:16:55.974Z,100567.34
2023-07-31T10:19:23.202Z,100584.94
2023-07-31T10:21:50.148Z,100581.72
2023-07-31T10:24:17.430Z,100574.22
2023-07-31T10:26:46.868Z,100575.38
2023-07-31T10:29:14.573Z,100560.97
2023-07-31T10:31:42.089Z,100558.53
2023-07-31T10:34:09.043Z,100567.19
2023-07-31T10:36:35.604Z,100557.50
2023-07-31T10:39:05.394Z,100555.56
2023-07-31T10:41:32.958Z,100566.50
2023-07-31T10:44:02.760Z,100546.75
2023-07-31T10:46:30.318Z,100577.13
2023-07-31T10:49:02.044Z,100564.22
2023-07-31T10:51:36.308Z,100579.41
2023-07-31T10:54:16.954Z,100585.03
2023-07-31T10:56:47.889Z,100585.97
2023-07-31T10:59:15.199Z,100555.84
2023-07-31T11:01:53.482Z,100582.41
2023-07-31T11:04:25.806Z,100578.25
2023-07-31T11:07:03.808Z,100580.94
2023-07-31T11:09:32.977Z,100574.19
2023-07-31T11:12:01.017Z,100566.53
2023-07-31T11:14:27.792Z,100568.09
2023-07-31T11:16:54.464Z,100582.03
2023-07-31T11:19:27.197Z,100573.13
2023-07-31T11:21:54.436Z,100577.44
2023-07-31T11:24:21.308Z,100569.13
2023-07-31T11:26:54.289Z,100569.16
2023-07-31T11:29:21.730Z,100563.25
2023-07-31T11:31:50.275Z,100565.91
2023-07-31T11:34:18.383Z,100549.31
2023-07-31T11:36:56.872Z,100552.16
2023-07-31T11:39:23.479Z,100542.91
2023-07-31T11:41:50.109Z,100554.47
2023-07-31T11:44:27.735Z,100543.03
2023-07-31T11:46:57.934Z,100545.84
2023-07-31T11:49:24.722Z,100548.81
2023-07-31T11:51:51.555Z,100540.63
2023-07-31T11:54:18.708Z,100549.69
2023-07-31T11:56:45.748Z,100543.38
2023-07-31T11:59:14.014Z,100538.38
2023-07-31T12:01:40.999Z,100536.94
2023-07-31T12:04:08.209Z,100537.66
2023-07-31T12:06:38.701Z,100560.03
2023-07-31T12:09:06.447Z,100544.78
2023-07-31T12:11:44.060Z,100560.16
2023-07-31T12:14:24.997Z,100563.81
2023-07-31T12:16:59.789Z,100567.31
2023-07-31T12:19:30.963Z,100565.03
2023-07-31T12:21:59.176Z,100558.78
2023-07-31T12:24:27.635Z,100558.59
2023-07-31T12:26:55.948Z,100542.16
2023-07-31T12:29:22.643Z,100543.97
2023-07-31T12:31:49.347Z,100537.13
2023-07-31T12:34:21.825Z,100527.34
2023-07-31T12:36:51.790Z,100515.09
2023-07-31T12:39:18.430Z,100518.56
2023-07-31T12:41:45.040Z,100501.88
2023-07-31T12:44:11.698Z,100526.94
2023-07-31T12:46:39.074Z,100528.25
2023-07-31T12:49:06.092Z,100521.34
2023-07-31T12:51:32.684Z,100508.06
2023-07-31T12:53:59.252Z,100513.41
2023-07-31T12:56:26.012Z,100520.53
2023-07-31T12:58:52.560Z,100508.06
2023-07-31T13:01:19.247Z,100506.03
2023-07-31T13:03:46.014Z,100525.53
2023-07-31T13:06:12.772Z,100513.94
2023-07-31T13:08:39.358Z,100521.59
2023-07-31T13:11:05.973Z,100520.56
2023-07-31T13:13:33.304Z,100514.69
2023-07-31T13:16:00.287Z,100528.91
2023-07-31T13:18:27.057Z,100524.34
2023-07-31T13:20:53.610Z,100518.28
2023-07-31T13:23:20.253Z,100502.50
2023-07-31T13:25:46.901Z,100499.78
2023-07-31T13:28:13.579Z,100493.19
2023-07-31T13:30:40.240Z,100497.28
2023-07-31T13:33:12.382Z,100489.56
2023-07-31T13:35:44.625Z,100491.66
2023-07-31T13:38:11.256Z,100487.75
2023-07-31T13:40:37.884Z,100479.63
2023-07-31T13:43:04.507Z,100488.28
2023-07-31T13:45:31.158Z,100471.56
2023-07-31T13:47:57.814Z,100479.97
2023-07-31T13:50:24.441Z,100472.25
2023-07-31T13:52:51.014Z,100461.16
2023-07-31T13:55:17.619Z,100466.97
2023-07-31T13:57:44.328Z,100467.22
2023-07-31T14:00:11.651Z,100464.06
2023-07-31T14:02:38.264Z,100474.66
2023-07-31T14:05:05.142Z,100466.41
2023-07-31T14:07:33.506Z,100463.06
2023-07-31T14:10:00.266Z,100471.22
2023-07-31T14:12:41.768Z,100467.25
2023-07-31T14:15:09.973Z,100481.56
2023-07-31T14:17:36.794Z,100485.66
2023-07-31T14:20:04.725Z,100475.38
2023-07-31T14:22:32.138Z,100470.03
2023-07-31T14:24:58.755Z,100485.50
2023-07-31T14:27:25.618Z,100482.09
2023-07-31T14:29:52.303Z,100480.41
2023-07-31T14:32:18.852Z,100477.50
2023-07-31T14:34:45.375Z,100475.81
2023-07-31T14:37:11.903Z,100474.66
2023-07-31T14:39:41.013Z,100476.19
2023-07-31T14:42:08.144Z,100469.25
2023-07-31T14:44:34.690Z,100445.41
2023-07-31T14:47:01.290Z,100458.09
2023-07-31T14:49:30.728Z,100447.75
2023-07-31T14:51:57.381Z,100447.94
2023-07-31T14:54:23.956Z,100411.09
2023-07-31T14:56:50.489Z,100427.16
2023-07-31T14:59:17.103Z,100422.66
2023-07-31T15:01:43.773Z,100425.19
2023-07-31T15:04:10.403Z,100415.56
2023-07-31T15:06:37.057Z,100411.16
2023-07-31T15:09:03.753Z,100410.41
2023-07-31T15:11:30.318Z,100410.56
2023-07-31T15:13:57.159Z,100405.41
2023-07-31T15:16:23.911Z,100406.59
2023-07-31T15:18:50.498Z,100406.91
2023-07-31T15:21:17.133Z,100401.88
2023-07-31T15:23:43.758Z,100376.28
2023-07-31T15:26:10.334Z,100395.25
2023-07-31T15:28:38.661Z,100395.34
2023-07-31T15:31:05.728Z,100396.22
2023-07-31T15:33:32.484Z,100386.69
2023-07-31T15:35:59.137Z,100380.59
2023-07-31T15:38:25.848Z,100358.28
2023-07-31T15:40:52.469Z,100373.69
2023-07-31T15:43:21.124Z,100367.00
2023-07-31T15:45:47.739Z,100369.72
2023-07-31T15:48:14.388Z,100360.25
2023-07-31T15:50:41.338Z,100350.03
2023-07-31T15:53:07.961Z,100341.38
2023-07-31T15:55:34.916Z,100346.44
2023-07-31T15:58:01.491Z,100350.91
2023-07-31T16:00:28.188Z,100337.03
2023-07-31T16:02:54.862Z,100326.72
2023-07-31T16:05:21.516Z,100326.59
2023-07-31T16:07:48.094Z,100323.22
2023-07-31T16:10:14.671Z,100318.00
2023-07-31T16:12:41.274Z,100326.72
2023-07-31T16:15:08.647Z,100307.78
2023-07-31T16:17:35.271Z,100327.78
2023-07-31T16:20:01.923Z,100327.09
2023-07-31T16:22:28.527Z,100321.88
2023-07-31T16:24:55.105Z,100308.91
2023-07-31T16:27:24.434Z,100325.25
2023-07-31T16:29:51.403Z,100308.09
2023-07-31T16:32:18.194Z,100306.41
2023-07-31T16:34:44.823Z,100292.81
2023-07-31T16:37:11.406Z,100311.72
2023-07-31T16:39:38.241Z,100305.78
2023-07-31T16:42:05.304Z,100298.91
2023-07-31T16:44:31.919Z,100305.00
2023-07-31T16:46:58.667Z,100296.44
2023-07-31T16:49:25.223Z,100300.91
2023-07-31T16:51:52.562Z,100289.53
2023-07-31T16:54:19.166Z,100275.63
2023-07-31T16:56:58.467Z,100289.25
2023-07-31T16:59:27.853Z,100284.69
2023-07-31T17:02:15.231Z,100285.75
2023-07-31T17:04:40.922Z,100280.47
2023-07-31T17:07:07.506Z,100270.25
2023-07-31T17:09:34.111Z,100228.56
2023-07-31T17:12:00.946Z,100269.97
2023-07-31T17:14:27.506Z,100274.50
2023-07-31T17:16:54.622Z,100277.06
2023-07-31T17:19:21.221Z,100270.56
2023-07-31T17:21:47.819Z,100248.00
2023-07-31T17:24:14.373Z,100241.06
2023-07-31T17:26:40.987Z,100229.81
2023-07-31T17:29:07.562Z,100228.75
2023-07-31T17:31:35.847Z,100209.69
2023-07-31T17:34:02.921Z,100211.53
2023-07-31T17:36:29.496Z,100196.69
2023-07-31T17:38:56.091Z,100168.59
2023-07-31T17:41:23.544Z,100184.59
2023-07-31T17:43:50.187Z,100178.69
2023-07-31T17:46:16.804Z,100192.53
2023-07-31T17:48:44.586Z,100212.53
2023-07-31T17:51:11.211Z,100219.56
2023-07-31T17:53:37.760Z,100220.69
2023-07-31T17:56:04.503Z,100225.88
2023-07-31T17:58:31.065Z,100228.53
2023-07-31T18:00:57.644Z,100202.91
2023-07-31T18:03:26.863Z,100232.91
2023-07-31T18:05:53.663Z,100227.88
2023-07-31T18:08:20.486Z,100228.97
2023-07-31T18:10:47.909Z,100238.31
2023-07-31T18:13:15.245Z,100237.59
2023-07-31T18:15:48.516Z,100230.75
2023-07-31T18:18:15.714Z,100222.19
2023-07-31T18:20:42.654Z,100235.03
2023-07-31T18:23:09.353Z,100228.97
2023-07-31T18:25:35.987Z,100220.66
2023-07-31T18:28:02.880Z,100233.56
2023-07-31T18:30:29.517Z,100231.97
2023-07-31T18:32:56.126Z,100235.34
2023-07-31T18:35:24.018Z,100224.94
2023-07-31T18:37:50.638Z,100222.19
2023-07-31T18:40:17.205Z,100213.63
2023-07-31T18:42:44.028Z,100205.16
2023-07-31T18:45:10.708Z,100216.22
2023-07-31T18:47:37.275Z,100216.31
2023-07-31T18:50:05.373Z,100211.09
2023-07-31T18:52:33.114Z,100194.25
2023-07-31T18:54:59.816Z,100174.38
2023-07-31T18:57:26.956Z,100170.22
2023-07-31T18:59:53.510Z,100178.00
2023-07-31T19:02:20.155Z,100187.03
2023-07-31T19:04:46.791Z,100189.75
2023-07-31T19:07:15.568Z,100176.50
2023-07-31T19:09:42.211Z,100188.50
2023-07-31T19:12:08.933Z,100182.88
2023-07-31T19:14:36.391Z,100176.19
2023-07-31T19:17:03.124Z,100168.69
2023-07-31T19:19:29.763Z,100173.75
2023-07-31T19:21:56.297Z,100147.31
2023-07-31T19:24:24.420Z,100158.69
2023-07-31T19:26:51.900Z,100160.59
2023-07-31T19:29:18.560Z,100160.75
2023-07-31T19:31:45.258Z,100146.16
2023-07-31T19:34:12.753Z,100158.97
2023-07-31T19:36:40.668Z,100152.16
2023-07-31T19:39:07.483Z,100158.19
2023-07-31T19:41:34.078Z,100152.16
2023-07-31T19:44:00.669Z,100150.50
2023-07-31T19:46:27.308Z,100157.56
2023-07-31T19:48:54.626Z,100157.56
2023-07-31T19:51:21.246Z,100159.16
2023-07-31T19:53:47.800Z,100153.16
2023-07-31T19:56:14.400Z,100158.44
2023-07-31T19:58:41.037Z,100163.50
2023-07-31T20:01:08.027Z,100135.81
2023-07-31T20:03:34.591Z,100163.06
2023-07-31T20:06:01.276Z,100164.88
2023-07-31T20:08:27.886Z,100155.50
2023-07-31T20:10:54.981Z,100152.09
2023-07-31T20:13:21.533Z,100137.50
2023-07-31T20:15:48.177Z,100153.56
2023-07-31T20:18:14.948Z,100142.38
2023-07-31T20:20:41.677Z,100135.50
2023-07-31T20:23:08.332Z,100120.25
2023-07-31T20:25:36.007Z,100146.09
2023-07-31T20:28:03.477Z,100129.00
2023-07-31T20:30:30.108Z,100127.50
2023-07-31T20:32:57.907Z,100130.09
2023-07-31T20:35:25.211Z,100128.78
2023-07-31T20:37:51.918Z,100120.31
2023-07-31T20:40:18.685Z,100125.78
2023-07-31T20:42:56.573Z,100122.41
2023-07-31T20:45:23.241Z,100116.38
2023-07-31T20:47:49.948Z,100131.19
2023-07-31T20:50:16.852Z,100114.16
2023-07-31T20:52:43.424Z,100112.28
2023-07-31T20:55:10.016Z,100111.72
2023-07-31T20:57:36.573Z,100109.97
2023-07-31T21:00:03.317Z,100103.16
2023-07-31T21:02:29.982Z,100122.22
2023-07-31T21:04:56.665Z,100101.44
2023-07-31T21:07:23.256Z,100100.63
2023-07-31T21:09:49.899Z,100096.25
2023-07-31T21:12:16.422Z,100096.34
2023-07-31T21:14:43.413Z,100083.34
2023-07-31T21:17:10.030Z,100078.97
2023-07-31T21:19:36.641Z,100070.50
2023-07-31T21:22:03.247Z,100070.50
2023-07-31T21:24:29.821Z,100068.75
2023-07-31T21:26:56.355Z,100062.63
2023-07-31T21:29:22.921Z,100050.59
2023-07-31T21:31:49.536Z,100067.69
2023-07-31T21:34:16.157Z,100041.03
2023-07-31T21:36:42.846Z,100052.69
2023-07-31T21:39:09.485Z,100048.47
2023-07-31T21:41:36.222Z,100061.19
2023-07-31T21:44:02.840Z,100042.28
2023-07-31T21:46:29.843Z,100043.81
2023-07-31T21:48:56.444Z,100025.88
2023-07-31T21:51:23.261Z,100036.09
2023-07-31T21:53:49.795Z,100036.09
2023-07-31T21:56:16.445Z,100043.75
2023-07-31T21:58:43.027Z,100028.09
2023-07-31T22:01:09.595Z,100019.56
2023-07-31T22:03:38.021Z,100028.97
2023-07-31T22:06:04.647Z,100020.38
2023-07-31T22:08:31.265Z,100022.16
2023-07-31T22:10:57.843Z,100023.06
2023-07-31T22:13:24.464Z,100023.00
2023-07-31T22:15:51.090Z,100022.22
2023-07-31T22:18:18.613Z,100017.91
2023-07-31T22:20:51.877Z,100006.84
2023-07-31T22:23:18.450Z,100017.88
2023-07-31T22:25:45.049Z,100012.81
2023-07-31T22:28:20.937Z,100011.09
2023-07-31T22:30:48.529Z,100007.66
2023-07-31T22:33:15.216Z,100016.22
2023-07-31T22:35:43.036Z,100019.66
2023-07-31T22:38:09.757Z,100010.94
2023-07-31T22:40:36.303Z,100008.44
2023-07-31T22:43:02.908Z,100005.00
2023-07-31T22:45:29.527Z,100009.28
2023-07-31T22:47:56.200Z,100005.94
2023-07-31T22:50:22.887Z,100013.75
2023-07-31T22:52:49.543Z,100002.41
2023-07-31T22:55:16.181Z,99998.16
2023-07-31T22:57:42.827Z,99991.22
2023-07-31T23:00:09.866Z,99993.84
2023-07-31T23:02:36.587Z,99995.75
2023-07-31T23:05:03.315Z,99993.97
2023-07-31T23:07:29.979Z,99992.31
2023-07-31T23:09:56.544Z,99987.25
2023-07-31T23:12:23.136Z,99983.81
2023-07-31T23:14:49.722Z,99988.06
2023-07-31T23:17:16.398Z,99988.06
2023-07-31T23:19:43.159Z,99995.09
2023-07-31T23:22:09.904Z,99990.84
2023-07-31T23:24:36.462Z,99980.00
2023-07-31T23:27:03.014Z,99987.81
2023-07-31T23:29:29.609Z,99978.50
2023-07-31T23:31:56.263Z,99972.66
2023-07-31T23:34:22.982Z,99957.28
2023-07-31T23:36:49.558Z,99959.88
2023-07-31T23:39:16.074Z,99952.22
2023-07-31T23:41:42.662Z,99949.78
2023-07-31T23:44:09.272Z,99947.22
2023-07-31T23:46:35.852Z,99946.38
2023-07-31T23:49:02.447Z,99947.44
2023-07-31T23:51:29.633Z,99938.72
2023-07-31T23:53:56.694Z,99929.44
2023-07-31T23:56:23.348Z,99934.75
2023-07-31T23:58:49.936Z,99929.59
